Airport View

Enter AWOS ICAO identifier for current METAR.

ex. KFNL

KHEI 202353Z AUTO 00000KT 10SM CLR 20/17 A2971 RMK AO2 SLP047 60015 T02000172 10217 20161 56012

21 Sep 2019 00:57

Frequency: 119.925

Phone: 701-567-4594

Other Area AWOS: KBWW - K2WX - KDIK - KD57

TAF KDIK 202323Z 2100/2124 36008KT P6SM VCSH SCT020 BKN060 FM210300 32005KT P6SM VCSH SCT011 BKN022 FM210500 32008KT 6SM -SHRA VCTS SCT006CB OVC021 FM210900 32007KT 6SM -SHRA BR SCT013 OVC045 FM211500 32012G21KT 6SM SHRA BR OVC009